Chatsworth, California
Current Conditions -  °F | °C
As of 5:51 PM on Wednesday 17 Dec 2014 (Local Time) from KVNY Reporting Station
Overcast Overcast  
Wind Chill: 57°   Ceiling: 12000
Heat Index: 57°   Visibility: 10mi
Dew Point: 44°   Wind: 0mph
Humidity: 62%   Direction: NA
Pressure: 30.06"   Gusts: NA
Location:  34.26°N, 118.6°W
Report Text: KVNY 180151Z 00000KT 10SM OVC120 14/07 A3006 RMK AO2 SLP175 T01390067
Loading
Personal Weather Stations






























Interactive Weather Map New forecast layout! Learn more

10-Day Weather Forecast

Advertisements
Track Severe Weather on mobile